Time;durP1;ratioP1;P1;durP2;ratioP2;P2;SDS_P1;SDS_P2;PMS_P1;PMS_P2;Temp;Humidity;BMP_temperature;BMP_pressure;BME280_temperature;BME280_humidity;BME280_pressure;Samples;Min_cycle;Max_cycle;Signal;HPM_P1;HPM_P2
2023/03/07 05:15:39;;;;;;;5.53;0.90;;;11.80;54.20;;;;;;5715300;24;20029;-76
2023/03/07 05:18:05;;;;;;;5.45;1.23;;;11.80;54.40;;;;;;4790232;30;20055;-77
2023/03/07 05:20:41;;;;;;;12.60;1.92;;;11.80;54.80;;;;;;4775271;30;20051;-79
2023/03/07 05:23:07;;;;;;;5.25;0.90;;;11.80;55.70;;;;;;4778791;30;20210;-79
2023/03/07 05:25:36;;;;;;;7.60;1.27;;;11.80;56.20;;;;;;4791598;30;20118;-79
2023/03/07 05:28:02;;;;;;;7.43;0.85;;;11.90;56.20;;;;;;4776574;30;20043;-78
2023/03/07 05:30:28;;;;;;;6.65;0.90;;;12.00;56.20;;;;;;4792440;30;20053;-80
2023/03/07 05:32:53;;;;;;;9.13;1.63;;;12.10;56.50;;;;;;4792663;30;20371;-81
2023/03/07 05:35:23;;;;;;;8.38;0.65;;;12.20;56.70;;;;;;4792443;30;20043;-78
2023/03/07 05:37:49;;;;;;;5.47;1.08;;;12.40;56.70;;;;;;4779681;29;20447;-79
2023/03/07 05:40:16;;;;;;;5.82;0.80;;;12.50;56.70;;;;;;4810631;29;20339;-80
2023/03/07 05:42:42;;;;;;;6.80;1.17;;;12.70;56.70;;;;;;4794841;29;20134;-81
2023/03/07 05:45:08;;;;;;;3.97;0.80;;;12.80;56.80;;;;;;4794156;29;20051;-81
2023/03/07 05:47:34;;;;;;;6.25;0.75;;;13.00;56.90;;;;;;4810471;29;20046;-79
2023/03/07 05:50:00;;;;;;;7.47;1.20;;;13.10;56.90;;;;;;4795264;29;20539;-78
2023/03/07 05:52:27;;;;;;;5.50;1.13;;;13.20;56.90;;;;;;4810181;29;20047;-78
2023/03/07 05:54:54;;;;;;;7.40;0.85;;;13.30;56.80;;;;;;4811025;29;20062;-76
2023/03/07 05:57:21;;;;;;;6.00;0.80;;;13.40;57.00;;;;;;4794358;29;20051;-80
2023/03/07 05:59:46;;;;;;;8.27;1.63;;;13.40;57.00;;;;;;4790548;30;20055;-80
2023/03/07 06:02:13;;;;;;;7.40;1.27;;;13.50;57.00;;;;;;4804965;29;20062;-79
2023/03/07 06:04:39;;;;;;;18.10;1.98;;;13.60;57.40;;;;;;4810096;29;20057;-78
2023/03/07 06:07:10;;;;;;;9.93;1.15;;;13.70;57.60;;;;;;4809789;29;20378;-82
2023/03/07 06:09:36;;;;;;;8.43;1.40;;;13.80;57.40;;;;;;4809569;29;20054;-73
2023/03/07 06:12:02;;;;;;;11.05;2.25;;;13.90;57.70;;;;;;4793985;29;20047;-78
2023/03/07 06:14:29;;;;;;;11.02;1.80;;;14.00;58.20;;;;;;4809551;29;20481;-79
2023/03/07 06:16:55;;;;;;;12.13;2.15;;;14.00;58.60;;;;;;4809065;29;20179;-79
2023/03/07 06:19:20;;;;;;;13.18;1.40;;;14.10;59.00;;;;;;4790771;30;20097;-79
2023/03/07 06:21:46;;;;;;;11.60;1.50;;;14.20;59.70;;;;;;4803353;29;20133;-78
2023/03/07 06:24:12;;;;;;;13.23;1.92;;;14.30;60.00;;;;;;4810192;29;20134;-73
2023/03/07 06:26:37;;;;;;;18.67;2.53;;;14.30;60.20;;;;;;4793713;29;20494;-81
2023/03/07 06:29:03;;;;;;;11.48;1.88;;;14.40;60.50;;;;;;4808769;29;20047;-81
2023/03/07 06:31:29;;;;;;;14.15;2.08;;;14.40;60.10;;;;;;4809450;29;20051;-75
2023/03/07 06:33:57;;;;;;;21.85;2.40;;;14.50;60.40;;;;;;4809598;29;20058;-79
2023/03/07 06:36:27;;;;;;;15.85;2.35;;;14.50;60.40;;;;;;4809259;29;20420;-79
2023/03/07 06:38:54;;;;;;;17.52;1.88;;;14.60;61.00;;;;;;4808930;29;20057;-76
2023/03/07 06:41:21;;;;;;;20.40;2.13;;;14.60;61.20;;;;;;4808689;29;20508;-76
2023/03/07 06:43:51;;;;;;;24.63;3.05;;;14.70;61.20;;;;;;4809795;29;20050;-73
2023/03/07 06:46:17;;;;;;;49.83;3.85;;;14.80;61.10;;;;;;4790503;30;20448;-73
2023/03/07 06:48:43;;;;;;;22.02;2.72;;;14.90;60.80;;;;;;4791572;29;20054;-74
2023/03/07 06:51:09;;;;;;;22.02;2.75;;;14.90;60.50;;;;;;4809262;29;20130;-75
2023/03/07 06:53:35;;;;;;;27.10;3.00;;;14.90;60.10;;;;;;4808619;29;20097;-74
2023/03/07 06:56:01;;;;;;;23.45;3.42;;;14.90;60.20;;;;;;4808621;29;20046;-79
2023/03/07 06:58:27;;;;;;;26.20;3.17;;;15.00;60.30;;;;;;4808842;29;20055;-78
2023/03/07 07:00:52;;;;;;;25.38;3.58;;;15.00;60.40;;;;;;4808667;29;20050;-77
2023/03/07 07:03:19;;;;;;;24.48;2.88;;;15.00;60.40;;;;;;4809367;29;20043;-76
2023/03/07 07:05:47;;;;;;;27.10;2.42;;;15.10;60.30;;;;;;4808792;29;20459;-77
2023/03/07 07:08:13;;;;;;;26.20;2.85;;;15.10;60.30;;;;;;4808399;29;20126;-76
2023/03/07 07:10:39;;;;;;;23.60;3.47;;;15.10;60.30;;;;;;4809201;29;20208;-73
2023/03/07 07:13:05;;;;;;;34.25;2.88;;;15.20;59.80;;;;;;4804865;29;20126;-77
2023/03/07 07:15:31;;;;;;;24.45;3.72;;;15.20;59.60;;;;;;4807557;29;20061;-76
2023/03/07 07:17:57;;;;;;;25.42;4.07;;;15.20;59.80;;;;;;4792206;29;20156;-76
2023/03/07 07:20:23;;;;;;;26.67;3.03;;;15.20;59.90;;;;;;4777353;29;20086;-76
2023/03/07 07:22:49;;;;;;;22.40;2.72;;;15.30;59.60;;;;;;4792542;29;20076;-78
2023/03/07 07:25:15;;;;;;;27.02;3.35;;;15.30;59.30;;;;;;4807963;29;20055;-76
2023/03/07 07:27:40;;;;;;;26.40;2.83;;;15.30;59.20;;;;;;4808155;29;20133;-76
2023/03/07 07:30:07;;;;;;;17.20;2.30;;;15.40;59.10;;;;;;4791620;29;20046;-76
2023/03/07 07:32:33;;;;;;;21.05;2.42;;;15.40;59.10;;;;;;4791545;29;20046;-79
2023/03/07 07:34:59;;;;;;;23.67;2.75;;;15.40;59.60;;;;;;4808749;29;20046;-76
2023/03/07 07:37:25;;;;;;;20.65;2.47;;;15.40;59.60;;;;;;4808093;29;20374;-77
2023/03/07 07:39:50;;;;;;;17.45;1.70;;;15.40;59.50;;;;;;4803070;29;20062;-76
2023/03/07 07:42:17;;;;;;;26.20;2.72;;;15.50;59.10;;;;;;4804044;29;20126;-74
2023/03/07 07:44:42;;;;;;;16.83;2.67;;;15.50;58.90;;;;;;4806376;29;20450;-76
2023/03/07 07:47:08;;;;;;;15.65;1.63;;;15.60;58.70;;;;;;4782982;29;20043;-77
2023/03/07 07:49:34;;;;;;;16.92;2.35;;;15.60;58.60;;;;;;4807669;29;20090;-78
2023/03/07 07:52:00;;;;;;;12.65;1.40;;;15.60;58.50;;;;;;4803312;29;20446;-76
2023/03/07 07:54:27;;;;;;;12.20;2.67;;;15.70;58.40;;;;;;4801979;29;20126;-77
2023/03/07 07:56:52;;;;;;;15.30;1.98;;;15.70;58.30;;;;;;4807584;29;20055;-75
2023/03/07 07:59:18;;;;;;;13.65;1.75;;;15.80;58.30;;;;;;4808340;29;20057;-77
2023/03/07 08:01:44;;;;;;;13.88;1.63;;;15.80;58.20;;;;;;4808201;29;20137;-74
2023/03/07 08:04:10;;;;;;;9.45;1.92;;;15.80;57.90;;;;;;4807019;29;20051;-77
2023/03/07 08:06:35;;;;;;;13.10;1.58;;;15.80;57.80;;;;;;4791834;29;20179;-76
2023/03/07 08:09:02;;;;;;;13.23;1.65;;;15.90;57.60;;;;;;4806073;29;20050;-77
2023/03/07 08:11:28;;;;;;;12.73;2.08;;;15.90;57.60;;;;;;4807893;29;20057;-77
2023/03/07 08:13:53;;;;;;;18.35;2.40;;;15.90;57.50;;;;;;4807632;29;20133;-77
2023/03/07 08:16:21;;;;;;;21.05;1.88;;;15.90;57.50;;;;;;4792302;29;20574;-79
2023/03/07 08:18:51;;;;;;;16.60;1.80;;;15.90;56.90;;;;;;4806719;29;20066;-79
2023/03/07 08:21:17;;;;;;;8.60;1.15;;;15.90;56.70;;;;;;4791873;29;20058;-79
2023/03/07 08:23:43;;;;;;;17.42;1.52;;;15.90;56.70;;;;;;4806330;29;20051;-77
2023/03/07 08:26:09;;;;;;;11.18;1.25;;;15.90;57.00;;;;;;4806747;29;20050;-77
2023/03/07 08:28:39;;;;;;;9.43;1.10;;;15.90;57.10;;;;;;4792028;29;20456;-76
2023/03/07 08:31:23;;;;;;;13.05;1.63;;;15.80;56.80;;;;;;4808014;29;20115;-76
2023/03/07 08:33:50;;;;;;;15.48;1.20;;;15.80;56.50;;;;;;4811183;29;20130;-76
2023/03/07 08:36:16;;;;;;;5.47;1.08;;;15.70;56.90;;;;;;4809901;29;20110;-76
2023/03/07 08:38:42;;;;;;;6.68;0.82;;;15.70;56.90;;;;;;4811004;29;20412;-78
2023/03/07 08:41:08;;;;;;;6.18;1.02;;;15.60;56.90;;;;;;4809324;29;20074;-78
2023/03/07 08:43:36;;;;;;;6.70;1.02;;;15.60;57.70;;;;;;4779765;29;20055;-78
2023/03/07 08:46:02;;;;;;;12.70;1.52;;;15.60;57.10;;;;;;4811627;29;20130;-76
2023/03/07 08:48:28;;;;;;;6.25;1.25;;;15.50;57.10;;;;;;4811132;29;20482;-78
2023/03/07 08:50:55;;;;;;;3.63;0.75;;;15.50;56.30;;;;;;4795019;29;20054;-79
2023/03/07 08:53:21;;;;;;;3.05;0.40;;;15.50;54.60;;;;;;4811348;29;20062;-76
2023/03/07 08:55:47;;;;;;;4.15;0.55;;;15.40;52.30;;;;;;4795823;29;20047;-76
2023/03/07 08:58:13;;;;;;;3.53;0.68;;;15.40;51.30;;;;;;4810973;29;20111;-78
2023/03/07 09:00:39;;;;;;;7.47;1.67;;;15.30;49.90;;;;;;4794982;29;20050;-75
2023/03/07 09:03:06;;;;;;;4.47;0.85;;;15.20;49.90;;;;;;4810359;29;20049;-77
2023/03/07 09:05:35;;;;;;;6.38;1.10;;;15.10;49.20;;;;;;4794613;29;20123;-76
2023/03/07 09:08:01;;;;;;;6.18;0.70;;;15.00;49.50;;;;;;4809355;29;20366;-76
2023/03/07 09:10:27;;;;;;;8.18;0.63;;;15.00;49.70;;;;;;4795630;29;20066;-76
2023/03/07 09:12:54;;;;;;;6.90;0.82;;;15.00;50.20;;;;;;4794315;29;20051;-76
2023/03/07 09:15:20;;;;;;;9.75;1.05;;;15.00;50.70;;;;;;4805944;29;20051;-77
2023/03/07 09:17:46;;;;;;;2.42;0.82;;;15.00;51.00;;;;;;4793065;30;20066;-78
2023/03/07 09:20:12;;;;;;;7.97;1.20;;;15.10;51.30;;;;;;4802256;29;20055;-75
2023/03/07 09:22:38;;;;;;;6.90;0.60;;;15.20;51.60;;;;;;4810495;29;20086;-78
2023/03/07 09:25:05;;;;;;;3.65;0.75;;;15.20;51.80;;;;;;4797604;29;20148;-78
2023/03/07 09:27:30;;;;;;;3.17;0.60;;;15.30;52.10;;;;;;4806967;29;20060;-75
2023/03/07 09:29:56;;;;;;;6.53;0.80;;;15.40;52.30;;;;;;4792068;29;20051;-77
2023/03/07 09:32:22;;;;;;;7.22;0.57;;;15.40;52.40;;;;;;4809885;29;20054;-75
2023/03/07 09:34:48;;;;;;;6.80;0.70;;;15.50;52.70;;;;;;4807363;29;20047;-76
2023/03/07 09:37:13;;;;;;;7.97;1.40;;;15.60;52.80;;;;;;4806228;29;20065;-78
2023/03/07 09:39:39;;;;;;;6.00;0.80;;;15.60;53.00;;;;;;4810821;29;20554;-73
2023/03/07 09:42:17;;;;;;;7.20;1.17;;;15.50;53.20;;;;;;4809521;29;20474;-77
2023/03/07 09:45:01;;;;;;;8.88;1.40;;;15.60;53.40;;;;;;4810231;29;20046;-75
2023/03/07 09:47:45;;;;;;;9.65;1.42;;;15.50;52.70;;;;;;4810440;29;20466;-78
2023/03/07 09:50:51;;;;;;;6.07;0.88;;;15.50;52.60;;;;;;4810568;29;20062;-77
2023/03/07 09:53:23;;;;;;;7.50;0.82;;;15.40;52.60;;;;;;4809677;29;20046;-75
2023/03/07 09:55:51;;;;;;;9.18;1.13;;;15.40;53.00;;;;;;4808385;29;20093;-74
2023/03/07 09:58:22;;;;;;;6.07;0.70;;;15.30;53.30;;;;;;4803112;29;20042;-77
2023/03/07 10:00:54;;;;;;;6.70;0.88;;;15.30;53.40;;;;;;4806775;29;20430;-75
2023/03/07 10:03:34;;;;;;;3.70;0.90;;;15.20;53.70;;;;;;4792231;30;20355;-74
2023/03/07 10:06:22;;;;;;;6.40;1.05;;;15.20;53.80;;;;;;4800176;29;20356;-73
2023/03/07 10:08:47;;;;;;;4.88;0.70;;;15.20;54.10;;;;;;4790431;29;20088;-75
2023/03/07 10:12:02;;;;;;;6.80;1.00;;;15.10;54.20;;;;;;4810132;29;20047;-74
2023/03/07 10:14:40;;;;;;;;;;;15.10;54.30;;;;;;4784538;29;20440;-73
2023/03/07 10:17:24;;;;;;;6.70;0.68;;;15.00;54.50;;;;;;4808899;29;19987;-75
2023/03/07 10:20:00;;;;;;;3.47;0.57;;;14.90;54.70;;;;;;4809480;29;20055;-74
2023/03/07 10:22:47;;;;;;;2.00;0.47;;;14.90;54.80;;;;;;4810028;29;20051;-75
2023/03/07 10:25:30;;;;;;;4.38;0.60;;;14.90;55.10;;;;;;4808749;29;20062;-75
2023/03/07 10:28:10;;;;;;;5.40;0.83;;;14.90;55.20;;;;;;4809308;29;20058;-76
2023/03/07 10:30:36;;;;;;;6.45;1.02;;;14.90;55.30;;;;;;4808605;29;20050;-75
2023/03/07 10:33:05;;;;;;;5.10;0.93;;;14.90;55.30;;;;;;4809301;29;20058;-73
2023/03/07 10:35:42;;;;;;;4.63;0.80;;;14.90;55.00;;;;;;4809362;29;20117;-75
2023/03/07 10:38:18;;;;;;;5.10;1.02;;;14.90;54.50;;;;;;4792152;30;20349;-75
2023/03/07 10:41:01;;;;;;;4.57;0.70;;;14.90;54.00;;;;;;4799926;29;20581;-77
2023/03/07 10:43:30;;;;;;;5.45;0.98;;;14.90;53.50;;;;;;4792597;29;20062;-75
2023/03/07 10:45:59;;;;;;;4.25;0.70;;;14.90;53.10;;;;;;4809260;29;20047;-75
2023/03/07 10:48:26;;;;;;;5.82;1.05;;;14.90;53.00;;;;;;4809284;29;20115;-74
2023/03/07 10:51:29;;;;;;;6.18;0.80;;;14.80;52.70;;;;;;4809554;29;20137;-77
2023/03/07 10:53:56;;;;;;;3.90;0.75;;;14.80;52.90;;;;;;4792940;29;20114;-76
2023/03/07 10:56:22;;;;;;;2.15;0.80;;;14.80;53.20;;;;;;4793031;29;20059;-75
2023/03/07 10:59:08;;;;;;;5.53;0.98;;;14.80;53.30;;;;;;4808783;29;20058;-75
2023/03/07 11:01:35;;;;;;;2.85;0.60;;;14.80;53.50;;;;;;4809451;29;20130;-77
2023/03/07 11:04:18;;;;;;;4.00;0.80;;;14.80;53.20;;;;;;4809391;29;20058;-77
2023/03/07 11:06:50;;;;;;;4.32;0.95;;;14.80;52.20;;;;;;4809100;29;20054;-74
2023/03/07 11:09:32;;;;;;;5.65;0.80;;;14.70;51.80;;;;;;4808784;29;20071;-74
2023/03/07 11:12:19;;;;;;;4.32;0.75;;;14.70;51.80;;;;;;4808747;29;20051;-75
2023/03/07 11:14:49;;;;;;;3.45;0.60;;;14.60;51.90;;;;;;4792647;29;20387;-74
2023/03/07 11:17:20;;;;;;;3.75;0.93;;;14.60;52.20;;;;;;4808945;29;20127;-74
2023/03/07 11:19:50;;;;;;;3.78;0.52;;;14.50;52.20;;;;;;4808819;29;20453;-75
2023/03/07 11:22:19;;;;;;;3.22;0.70;;;14.50;52.50;;;;;;4809054;29;20086;-73
2023/03/07 11:25:13;;;;;;;7.65;1.30;;;14.50;52.60;;;;;;4806459;29;20051;-76
2023/03/07 11:27:59;;;;;;;4.90;0.82;;;14.50;53.20;;;;;;4808826;29;20047;-74
2023/03/07 11:30:27;;;;;;;3.35;0.52;;;14.40;50.80;;;;;;4809295;29;20137;-75
2023/03/07 11:33:04;;;;;;;4.55;1.00;;;14.40;49.80;;;;;;4808682;29;20055;-75
2023/03/07 11:35:47;;;;;;;4.63;0.70;;;14.40;49.80;;;;;;4792062;29;20050;-78
2023/03/07 11:38:39;;;;;;;4.50;0.50;;;14.30;50.20;;;;;;4808779;29;20479;-77
2023/03/07 11:41:10;;;;;;;6.47;0.60;;;14.30;50.20;;;;;;4792016;29;20383;-75
2023/03/07 11:43:46;;;;;;;5.35;0.57;;;14.30;50.70;;;;;;4792585;29;20062;-75
2023/03/07 11:46:38;;;;;;;5.75;1.00;;;14.30;50.20;;;;;;4807648;29;20479;-74
2023/03/07 11:49:21;;;;;;;8.25;0.75;;;14.50;50.50;;;;;;4801921;29;20108;-75
2023/03/07 11:52:05;;;;;;;8.13;0.90;;;14.60;50.70;;;;;;4808274;29;20055;-75
2023/03/07 11:54:43;;;;;;;11.80;0.75;;;14.60;51.00;;;;;;4793932;29;20055;-74
2023/03/07 11:57:42;;;;;;;6.63;1.00;;;14.40;53.70;;;;;;4807555;29;20043;-77
2023/03/07 12:00:28;;;;;;;8.23;0.93;;;14.50;52.60;;;;;;4807980;29;20058;-77
2023/03/07 12:03:23;;;;;;;6.18;0.93;;;14.60;52.80;;;;;;4791765;29;20428;-76
2023/03/07 12:06:23;;;;;;;4.97;0.70;;;14.70;53.20;;;;;;4805853;29;20485;-76
2023/03/07 12:08:49;;;;;;;8.18;0.80;;;14.80;53.40;;;;;;4807566;29;20133;-75
2023/03/07 12:11:45;;;;;;;3.63;0.40;;;14.90;53.70;;;;;;4807258;29;20149;-75
2023/03/07 12:14:21;;;;;;;7.82;0.73;;;14.90;54.80;;;;;;4805904;29;20054;-75
2023/03/07 12:17:02;;;;;;;5.07;0.70;;;14.90;54.30;;;;;;4807172;29;20482;-74
2023/03/07 12:19:47;;;;;;;7.90;0.93;;;15.00;54.50;;;;;;4791517;29;20188;-75
2023/03/07 12:22:25;;;;;;;7.85;0.95;;;15.10;54.70;;;;;;4808152;29;20087;-74
2023/03/07 12:25:02;;;;;;;5.10;0.80;;;15.20;55.10;;;;;;4808076;29;20061;-75
2023/03/07 12:27:44;;;;;;;6.72;0.75;;;15.20;55.10;;;;;;4792080;29;20058;-77
2023/03/07 12:30:15;;;;;;;4.28;0.52;;;15.40;55.10;;;;;;4807679;29;20531;-75
2023/03/07 12:32:41;;;;;;;6.07;0.55;;;15.40;55.00;;;;;;4791156;29;20387;-78
2023/03/07 12:35:31;;;;;;;2.88;0.40;;;15.50;55.10;;;;;;4791938;29;20387;-75
2023/03/07 12:38:02;;;;;;;8.88;0.90;;;15.50;55.30;;;;;;4808574;29;20443;-77
2023/03/07 12:40:33;;;;;;;8.45;0.80;;;15.60;55.40;;;;;;4806772;29;20046;-77
2023/03/07 12:43:46;;;;;;;5.00;0.77;;;15.60;55.40;;;;;;4808231;29;20188;-75
2023/03/07 12:46:28;;;;;;;3.55;0.77;;;15.70;55.40;;;;;;4795122;29;20050;-80
2023/03/07 12:49:46;;;;;;;7.03;0.80;;;15.70;55.50;;;;;;4807953;29;20134;-77
2023/03/07 12:52:27;;;;;;;4.95;0.47;;;15.70;55.60;;;;;;4796194;29;20063;-77
2023/03/07 12:55:22;;;;;;;6.75;0.73;;;15.60;55.80;;;;;;4807625;29;20409;-75
2023/03/07 12:58:07;;;;;;;4.55;0.38;;;15.60;54.80;;;;;;4806181;29;20428;-77
2023/03/07 13:00:40;;;;;;;8.43;0.70;;;15.60;54.80;;;;;;4807270;29;20386;-76
2023/03/07 13:03:10;;;;;;;7.72;0.73;;;15.60;54.80;;;;;;4807447;29;20082;-77
2023/03/07 13:05:37;;;;;;;6.18;0.70;;;15.60;54.90;;;;;;4791449;29;20463;-76
2023/03/07 13:08:05;;;;;;;4.88;0.50;;;15.60;55.00;;;;;;4792292;29;20087;-76
2023/03/07 13:10:31;;;;;;;5.15;0.77;;;15.60;55.00;;;;;;4807436;29;20094;-78
2023/03/07 13:12:57;;;;;;;2.58;0.75;;;15.60;55.00;;;;;;4807786;29;20090;-77
2023/03/07 13:15:45;;;;;;;3.80;0.70;;;15.50;55.00;;;;;;4807600;29;20089;-75
2023/03/07 13:18:31;;;;;;;2.55;0.30;;;15.50;55.10;;;;;;4808167;29;20134;-78
2023/03/07 13:21:10;;;;;;;2.97;0.40;;;15.50;55.20;;;;;;4794878;29;20051;-79
2023/03/07 13:23:36;;;;;;;7.38;0.70;;;15.40;55.20;;;;;;4811681;29;20138;-78
2023/03/07 13:26:09;;;;;;;2.83;0.40;;;15.40;55.30;;;;;;4795286;29;20137;-77
2023/03/07 13:28:42;;;;;;;3.35;0.28;;;15.30;55.40;;;;;;4794938;29;20517;-78
2023/03/07 13:31:19;;;;;;;4.47;0.45;;;15.30;55.50;;;;;;4811065;29;20069;-79
2023/03/07 13:33:46;;;;;;;5.35;0.70;;;15.30;55.60;;;;;;4810014;29;20055;-77
2023/03/07 13:36:35;;;;;;;6.72;0.52;;;15.30;55.50;;;;;;4810846;29;20061;-78
2023/03/07 13:39:01;;;;;;;6.35;0.85;;;15.20;55.00;;;;;;4809144;29;20378;-76
2023/03/07 13:41:47;;;;;;;12.23;1.27;;;15.20;55.10;;;;;;4810398;29;20129;-79
2023/03/07 13:44:35;;;;;;;10.32;1.00;;;15.20;55.10;;;;;;4794435;29;20082;-80
2023/03/07 13:47:03;;;;;;;14.38;1.80;;;15.30;55.50;;;;;;4794234;29;20055;-76
2023/03/07 13:49:40;;;;;;;17.85;1.65;;;15.40;55.70;;;;;;4811006;29;20082;-79
2023/03/07 13:52:36;;;;;;;10.27;1.48;;;15.50;55.80;;;;;;4809750;29;20498;-77
2023/03/07 13:55:11;;;;;;;18.02;1.70;;;15.60;56.10;;;;;;4802647;29;20074;-80
2023/03/07 13:57:40;;;;;;;19.48;2.35;;;15.70;56.00;;;;;;4809196;29;20054;-79
2023/03/07 14:00:22;;;;;;;25.80;2.25;;;15.80;56.10;;;;;;4798771;29;20490;-78
2023/03/07 14:02:48;;;;;;;21.45;1.80;;;15.90;56.50;;;;;;4809360;29;20054;-78
2023/03/07 14:05:14;;;;;;;15.32;1.70;;;15.90;56.50;;;;;;4810030;29;20462;-79
2023/03/07 14:07:41;;;;;;;26.27;3.13;;;15.90;56.60;;;;;;4810179;29;20054;-79
2023/03/07 14:10:28;;;;;;;15.68;1.95;;;16.00;56.70;;;;;;4794099;29;20486;-77
2023/03/07 14:13:09;;;;;;;23.88;2.38;;;16.00;56.90;;;;;;4793905;29;20062;-78
2023/03/07 14:15:49;;;;;;;16.02;2.47;;;15.90;56.00;;;;;;4809468;29;20055;-77
2023/03/07 14:18:43;;;;;;;13.65;2.42;;;15.90;57.10;;;;;;4809011;29;20135;-78
2023/03/07 14:21:27;;;;;;;13.00;2.35;;;16.00;57.10;;;;;;4798904;29;20371;-76
2023/03/07 14:24:11;;;;;;;;;;;15.90;57.00;;;;;;4809243;29;20098;-78
2023/03/07 14:26:48;;;;;;;24.20;2.50;;;16.00;57.40;;;;;;4809043;29;20261;-78
2023/03/07 14:29:24;;;;;;;21.05;2.10;;;16.00;57.40;;;;;;4809301;29;20061;-77
2023/03/07 14:31:53;;;;;;;5.93;1.02;;;16.00;56.20;;;;;;4810259;29;20055;-77
2023/03/07 14:34:27;;;;;;;8.52;1.10;;;15.90;54.30;;;;;;4810427;29;20047;-75
2023/03/07 14:37:03;;;;;;;5.32;0.73;;;15.90;52.40;;;;;;4809841;29;20054;-77
2023/03/07 14:39:47;;;;;;;6.30;1.05;;;15.90;51.60;;;;;;4809937;29;20324;-77
2023/03/07 14:42:55;;;;;;;4.72;0.65;;;15.90;51.10;;;;;;4810306;29;20094;-77
2023/03/07 14:45:36;;;;;;;8.32;0.60;;;15.90;51.30;;;;;;4793224;29;20054;-77
2023/03/07 14:48:46;;;;;;;7.88;1.20;;;16.00;51.50;;;;;;4793906;29;20054;-76
2023/03/07 14:51:19;;;;;;;6.55;1.05;;;16.10;51.90;;;;;;4806949;29;20207;-78
2023/03/07 14:53:45;;;;;;;10.60;1.50;;;16.10;52.30;;;;;;4809277;29;20119;-79
2023/03/07 14:56:26;;;;;;;11.25;1.33;;;16.10;52.30;;;;;;4809239;29;20054;-76
2023/03/07 14:58:58;;;;;;;16.35;1.73;;;15.90;52.50;;;;;;4805681;29;20463;-77
2023/03/07 15:01:30;;;;;;;17.27;1.33;;;16.00;53.40;;;;;;4808908;29;20054;-77
2023/03/07 15:03:56;;;;;;;23.10;1.95;;;16.10;54.10;;;;;;4792713;29;20067;-77
2023/03/07 15:06:24;;;;;;;14.88;3.05;;;16.20;54.50;;;;;;4793807;29;20057;-78
2023/03/07 15:08:51;;;;;;;25.75;2.45;;;16.20;54.90;;;;;;4788220;29;20489;-76
2023/03/07 15:11:34;;;;;;;15.93;1.45;;;16.30;55.20;;;;;;4790814;30;20076;-76
2023/03/07 15:14:03;;;;;;;21.95;2.30;;;16.20;55.60;;;;;;4785687;29;20080;-80
2023/03/07 15:16:34;;;;;;;24.35;2.35;;;16.30;55.70;;;;;;4786921;29;20467;-80
2023/03/07 15:19:13;;;;;;;20.13;2.42;;;16.30;56.00;;;;;;4774063;29;20055;-79
2023/03/07 15:21:45;;;;;;;23.13;2.90;;;16.20;55.60;;;;;;4809029;29;20408;-81
2023/03/07 15:24:37;;;;;;;24.15;2.70;;;16.20;56.40;;;;;;4806007;29;20050;-81
2023/03/07 15:27:06;;;;;;;16.75;1.98;;;16.20;56.60;;;;;;4789781;29;20061;-79
2023/03/07 15:29:33;;;;;;;20.58;2.30;;;16.10;56.50;;;;;;4791138;29;20069;-82
2023/03/07 15:32:01;;;;;;;15.90;2.75;;;16.10;56.50;;;;;;4792641;29;20478;-81
2023/03/07 15:34:34;;;;;;;18.38;2.17;;;16.10;56.60;;;;;;4792258;29;20082;-80
2023/03/07 15:37:26;;;;;;;17.65;1.92;;;16.00;56.60;;;;;;4808276;29;20051;-79
2023/03/07 15:40:06;;;;;;;14.32;1.63;;;16.00;56.50;;;;;;4792578;29;20042;-82
2023/03/07 15:42:33;;;;;;;15.93;2.10;;;16.00;56.50;;;;;;4777126;29;20523;-76
2023/03/07 15:45:34;;;;;;;20.00;2.08;;;15.90;56.50;;;;;;4808691;29;20047;-82
2023/03/07 15:48:07;;;;;;;16.83;1.98;;;15.90;56.60;;;;;;4791952;29;20447;-80
2023/03/07 15:50:33;;;;;;;;;;;16.00;56.70;;;;;;4792705;29;20547;-81
2023/03/07 15:53:27;;;;;;;43.92;17.40;;;15.90;57.30;;;;;;4806003;29;19921;-84
2023/03/07 15:56:04;;;;;;;30.98;12.63;;;16.00;57.80;;;;;;4774089;29;20046;-76
2023/03/07 15:58:41;;;;;;;38.17;13.57;;;16.00;58.20;;;;;;4791917;29;20515;-80
2023/03/07 16:01:27;;;;;;;36.08;13.20;;;16.00;60.30;;;;;;4792543;29;20047;-78
2023/03/07 16:03:58;;;;;;;38.03;13.87;;;16.10;61.60;;;;;;4792049;29;20087;-80
2023/03/07 16:06:44;;;;;;;40.95;19.65;;;16.10;63.50;;;;;;4808004;29;20045;-79
2023/03/07 16:09:16;;;;;;;38.63;14.68;;;16.20;65.40;;;;;;4807696;29;20097;-79
2023/03/07 16:11:51;;;;;;;33.90;16.20;;;16.20;65.60;;;;;;4777433;29;20133;-83
2023/03/07 16:14:16;;;;;;;34.97;13.43;;;16.20;67.10;;;;;;4807840;29;20042;-82
2023/03/07 16:16:45;;;;;;;28.00;10.77;;;16.20;64.40;;;;;;4775559;29;20046;-81
2023/03/07 16:19:14;;;;;;;32.05;8.35;;;16.20;62.90;;;;;;4802665;29;20126;-85
2023/03/07 16:21:40;;;;;;;27.90;8.95;;;16.20;61.60;;;;;;4791768;29;20120;-82
2023/03/07 16:28:24;;;;;;;22.60;6.05;;;16.20;59.30;;;;;;4678401;30;20080;-83
2023/03/07 16:30:52;;;;;;;15.00;5.10;;;16.20;58.10;;;;;;4669523;30;20423;-82
2023/03/07 17:11:25;;;;;;;16.20;3.05;;;15.90;60.80;;;;;;5700628;24;20664;-83
2023/03/07 17:28:46;;;;;;;25.10;4.35;;;15.60;60.00;;;;;;4728712;30;20056;-82
2023/03/07 17:31:17;;;;;;;25.10;4.15;;;15.60;60.40;;;;;;4803778;29;20054;-84
2023/03/07 17:33:43;;;;;;;22.35;3.45;;;15.50;60.40;;;;;;4810657;29;20110;-76
2023/03/07 19:35:47;;;;;;;11.70;1.30;;;14.70;58.40;;;;;;4788007;29;20071;-78
2023/03/07 19:38:16;;;;;;;7.78;0.98;;;14.60;57.30;;;;;;4789669;30;20360;-81
2023/03/07 19:40:47;;;;;;;13.27;1.25;;;14.60;57.10;;;;;;4790652;30;20055;-77
2023/03/07 19:43:12;;;;;;;10.93;1.20;;;14.60;57.00;;;;;;4786271;29;20054;-76
2023/03/07 19:45:39;;;;;;;8.10;0.95;;;14.60;57.30;;;;;;4790075;30;20383;-78
2023/03/07 19:48:05;;;;;;;15.30;1.42;;;14.50;57.30;;;;;;4790274;29;20050;-78
2023/03/07 19:50:33;;;;;;;3.30;0.70;;;14.50;56.70;;;;;;4774973;29;20051;-77
2023/03/07 19:53:01;;;;;;;4.40;0.43;;;14.60;55.90;;;;;;4790119;30;20058;-77
2023/03/07 19:55:29;;;;;;;5.57;0.50;;;14.60;54.70;;;;;;4774386;30;20151;-74
2023/03/07 19:57:54;;;;;;;1.40;0.20;;;14.50;53.60;;;;;;4790263;30;20371;-76
2023/03/07 20:00:21;;;;;;;3.75;0.73;;;14.50;53.30;;;;;;4790178;30;20051;-79
2023/03/07 20:02:46;;;;;;;2.08;0.50;;;14.50;53.30;;;;;;4774059;30;20059;-77
2023/03/07 20:05:15;;;;;;;4.05;0.60;;;14.50;53.50;;;;;;4774355;30;20055;-74
2023/03/07 20:07:40;;;;;;;2.92;0.30;;;14.50;53.80;;;;;;4790069;29;20043;-77
2023/03/07 20:10:07;;;;;;;3.10;0.40;;;14.50;54.30;;;;;;4789990;30;20086;-78
2023/03/07 20:12:33;;;;;;;5.90;0.50;;;14.50;54.80;;;;;;4789412;29;20084;-78
2023/03/07 20:14:59;;;;;;;8.63;1.00;;;14.40;55.50;;;;;;4773043;30;20490;-79
2023/03/07 20:17:25;;;;;;;6.18;0.43;;;14.40;56.00;;;;;;4790150;30;20055;-78
2023/03/07 20:19:51;;;;;;;5.78;0.40;;;14.40;56.40;;;;;;4759140;30;20086;-78
2023/03/07 20:22:17;;;;;;;1.73;0.30;;;14.30;56.90;;;;;;4789390;29;20086;-79
2023/03/07 20:24:43;;;;;;;5.30;0.30;;;14.30;57.40;;;;;;4789887;30;20515;-79
2023/03/07 20:27:09;;;;;;;2.05;0.40;;;14.20;57.70;;;;;;4790009;30;20091;-78
2023/03/07 20:29:34;;;;;;;1.90;0.28;;;14.20;58.00;;;;;;4789885;30;20098;-78
2023/03/07 20:32:01;;;;;;;2.08;0.20;;;14.10;58.30;;;;;;4773943;30;20098;-80
2023/03/07 20:34:27;;;;;;;2.58;0.28;;;14.10;58.60;;;;;;4773166;30;20498;-77
2023/03/07 20:36:55;;;;;;;5.07;0.50;;;14.10;58.90;;;;;;4773611;30;20063;-77
2023/03/07 20:39:21;;;;;;;10.48;0.95;;;14.10;59.10;;;;;;4758948;30;20055;-78
2023/03/07 20:41:47;;;;;;;10.85;0.60;;;14.00;59.00;;;;;;4784292;29;20095;-79
2023/03/07 20:44:14;;;;;;;4.05;0.55;;;14.00;59.10;;;;;;4773842;30;20063;-81
2023/03/07 20:46:40;;;;;;;5.32;0.73;;;14.00;59.10;;;;;;4760624;30;20117;-80
2023/03/07 20:49:07;;;;;;;10.25;1.38;;;14.00;59.30;;;;;;4771818;30;20050;-80
2023/03/07 20:51:34;;;;;;;6.10;0.30;;;14.00;59.40;;;;;;4771951;30;20059;-77
2023/03/07 20:54:05;;;;;;;3.20;0.57;;;14.00;59.70;;;;;;4771978;30;20087;-80
2023/03/07 20:56:32;;;;;;;3.25;0.82;;;14.00;59.50;;;;;;4785843;29;20115;-80
2023/03/07 20:58:59;;;;;;;7.03;0.50;;;14.00;58.50;;;;;;4755665;30;20052;-81
2023/03/07 21:01:27;;;;;;;5.35;0.80;;;14.00;56.90;;;;;;4771362;30;20357;-78
2023/03/07 21:03:53;;;;;;;2.13;0.40;;;14.00;54.90;;;;;;4774364;30;20051;-80
2023/03/07 21:06:19;;;;;;;6.68;0.70;;;14.00;54.30;;;;;;4767457;30;20379;-81
2023/03/07 21:08:48;;;;;;;5.55;0.75;;;14.00;54.40;;;;;;4759112;30;20043;-78
2023/03/07 21:11:17;;;;;;;3.03;0.43;;;14.00;54.70;;;;;;4789521;30;20374;-79
2023/03/07 21:13:48;;;;;;;4.63;0.73;;;13.90;55.10;;;;;;4758816;30;20062;-75
2023/03/07 21:16:16;;;;;;;2.65;0.80;;;13.90;55.30;;;;;;4788113;30;20051;-78
2023/03/07 21:18:43;;;;;;;5.30;0.60;;;13.90;55.30;;;;;;4789235;30;20046;-78
2023/03/07 21:21:11;;;;;;;3.90;0.80;;;14.00;54.60;;;;;;4789564;30;20047;-77